sensor_id;sensor_type;location;lat;lon;timestamp;P1;P2;P0
62778;PMS7003;48821;48.796;2.396;2022-12-20T00:00:02;9.50;9.25;6.75
62778;PMS7003;48821;48.796;2.396;2022-12-20T00:01:15;8.50;6.75;6.00
62778;PMS7003;48821;48.796;2.396;2022-12-20T00:02:27;9.00;9.00;7.25
62778;PMS7003;48821;48.796;2.396;2022-12-20T00:03:38;12.75;9.00;7.00
62778;PMS7003;48821;48.796;2.396;2022-12-20T00:04:49;10.00;10.00;7.50
62778;PMS7003;48821;48.796;2.396;2022-12-20T00:06:00;10.50;8.50;7.00
62778;PMS7003;48821;48.796;2.396;2022-12-20T00:07:10;9.00;9.00;7.75
62778;PMS7003;48821;48.796;2.396;2022-12-20T00:08:20;6.00;6.00;4.00
62778;PMS7003;48821;48.796;2.396;2022-12-20T00:09:31;10.00;8.50;6.50
62778;PMS7003;48821;48.796;2.396;2022-12-20T00:10:42;11.25;10.00;7.50
62778;PMS7003;48821;48.796;2.396;2022-12-20T00:11:53;7.50;7.50;6.50
62778;PMS7003;48821;48.796;2.396;2022-12-20T00:13:04;9.25;8.00;6.75
62778;PMS7003;48821;48.796;2.396;2022-12-20T00:14:15;10.25;8.75;6.50
62778;PMS7003;48821;48.796;2.396;2022-12-20T00:15:26;8.00;8.00;6.00
62778;PMS7003;48821;48.796;2.396;2022-12-20T00:16:36;12.25;8.25;7.00
62778;PMS7003;48821;48.796;2.396;2022-12-20T00:17:47;7.50;7.50;5.75
62778;PMS7003;48821;48.796;2.396;2022-12-20T00:18:59;7.50;7.50;6.25
62778;PMS7003;48821;48.796;2.396;2022-12-20T00:20:11;6.75;6.75;5.50
62778;PMS7003;48821;48.796;2.396;2022-12-20T00:21:21;7.75;7.75;5.50
62778;PMS7003;48821;48.796;2.396;2022-12-20T00:22:32;8.75;5.50;4.00
62778;PMS7003;48821;48.796;2.396;2022-12-20T00:23:42;10.25;8.25;5.75
62778;PMS7003;48821;48.796;2.396;2022-12-20T00:24:52;10.25;8.00;6.50
62778;PMS7003;48821;48.796;2.396;2022-12-20T00:26:05;10.25;7.00;5.50
62778;PMS7003;48821;48.796;2.396;2022-12-20T00:27:17;12.75;11.00;7.75
62778;PMS7003;48821;48.796;2.396;2022-12-20T00:28:27;9.50;6.50;5.50
62778;PMS7003;48821;48.796;2.396;2022-12-20T00:29:38;9.00;7.25;6.00
62778;PMS7003;48821;48.796;2.396;2022-12-20T00:30:52;8.00;7.25;6.25
62778;PMS7003;48821;48.796;2.396;2022-12-20T00:32:03;7.50;7.50;5.50
62778;PMS7003;48821;48.796;2.396;2022-12-20T00:33:13;9.00;8.00;5.75
62778;PMS7003;48821;48.796;2.396;2022-12-20T00:34:24;9.75;7.25;6.00
62778;PMS7003;48821;48.796;2.396;2022-12-20T00:35:34;9.25;6.75;5.25
62778;PMS7003;48821;48.796;2.396;2022-12-20T00:36:44;8.75;7.25;6.00
62778;PMS7003;48821;48.796;2.396;2022-12-20T00:37:55;8.50;7.25;5.50
62778;PMS7003;48821;48.796;2.396;2022-12-20T00:39:05;9.25;7.75;6.25
62778;PMS7003;48821;48.796;2.396;2022-12-20T00:40:15;9.00;7.75;6.50
62778;PMS7003;48821;48.796;2.396;2022-12-20T00:41:27;8.75;8.50;7.00
62778;PMS7003;48821;48.796;2.396;2022-12-20T00:42:39;7.50;7.25;6.25
62778;PMS7003;48821;48.796;2.396;2022-12-20T00:43:49;9.25;7.50;5.50
62778;PMS7003;48821;48.796;2.396;2022-12-20T00:45:00;7.75;6.75;5.50
62778;PMS7003;48821;48.796;2.396;2022-12-20T00:46:12;8.00;8.00;6.50
62778;PMS7003;48821;48.796;2.396;2022-12-20T00:47:23;7.25;7.00;5.50
62778;PMS7003;48821;48.796;2.396;2022-12-20T00:48:34;8.50;8.50;6.50
62778;PMS7003;48821;48.796;2.396;2022-12-20T00:49:44;10.25;7.50;5.75
62778;PMS7003;48821;48.796;2.396;2022-12-20T00:52:36;8.25;8.25;6.50
62778;PMS7003;48821;48.796;2.396;2022-12-20T00:53:46;11.50;7.75;6.75
62778;PMS7003;48821;48.796;2.396;2022-12-20T00:54:57;11.75;8.00;6.50
62778;PMS7003;48821;48.796;2.396;2022-12-20T00:56:07;8.25;7.50;4.75
62778;PMS7003;48821;48.796;2.396;2022-12-20T00:57:18;9.75;8.00;6.00
62778;PMS7003;48821;48.796;2.396;2022-12-20T00:58:29;7.50;7.50;5.75
62778;PMS7003;48821;48.796;2.396;2022-12-20T00:59:41;8.50;8.50;6.25
62778;PMS7003;48821;48.796;2.396;2022-12-20T01:00:52;9.50;7.75;5.75
62778;PMS7003;48821;48.796;2.396;2022-12-20T01:02:03;9.50;9.00;7.00
62778;PMS7003;48821;48.796;2.396;2022-12-20T01:03:13;10.75;8.25;7.25
62778;PMS7003;48821;48.796;2.396;2022-12-20T01:04:24;7.50;7.50;7.00
62778;PMS7003;48821;48.796;2.396;2022-12-20T01:05:34;10.50;7.50;6.00
62778;PMS7003;48821;48.796;2.396;2022-12-20T01:06:45;9.25;8.00;6.25
62778;PMS7003;48821;48.796;2.396;2022-12-20T01:07:55;6.75;6.75;5.50
62778;PMS7003;48821;48.796;2.396;2022-12-20T01:09:05;5.50;5.50;4.50
62778;PMS7003;48821;48.796;2.396;2022-12-20T01:10:16;7.00;6.75;5.50
62778;PMS7003;48821;48.796;2.396;2022-12-20T01:11:28;10.00;8.75;6.50
62778;PMS7003;48821;48.796;2.396;2022-12-20T01:12:40;7.50;7.50;5.50
62778;PMS7003;48821;48.796;2.396;2022-12-20T01:13:51;7.25;7.25;6.00
62778;PMS7003;48821;48.796;2.396;2022-12-20T01:15:05;9.75;7.25;6.50
62778;PMS7003;48821;48.796;2.396;2022-12-20T01:16:18;7.00;6.75;5.50
62778;PMS7003;48821;48.796;2.396;2022-12-20T01:17:33;9.75;7.25;6.25
62778;PMS7003;48821;48.796;2.396;2022-12-20T01:18:44;7.25;6.50;4.50
62778;PMS7003;48821;48.796;2.396;2022-12-20T01:19:54;7.75;7.75;5.50
62778;PMS7003;48821;48.796;2.396;2022-12-20T01:21:06;7.75;7.25;6.75
62778;PMS7003;48821;48.796;2.396;2022-12-20T01:22:19;11.50;8.00;5.75
62778;PMS7003;48821;48.796;2.396;2022-12-20T01:23:29;8.75;8.25;6.50
62778;PMS7003;48821;48.796;2.396;2022-12-20T01:24:40;8.00;6.25;5.50
62778;PMS7003;48821;48.796;2.396;2022-12-20T01:25:50;6.00;5.25;4.75
62778;PMS7003;48821;48.796;2.396;2022-12-20T01:27:00;8.00;7.25;6.00
62778;PMS7003;48821;48.796;2.396;2022-12-20T01:28:10;10.50;8.00;6.25
62778;PMS7003;48821;48.796;2.396;2022-12-20T01:29:21;7.75;7.50;6.75
62778;PMS7003;48821;48.796;2.396;2022-12-20T01:30:31;9.75;8.00;7.00
62778;PMS7003;48821;48.796;2.396;2022-12-20T01:31:42;9.75;7.25;5.50
62778;PMS7003;48821;48.796;2.396;2022-12-20T01:32:52;6.25;6.00;4.50
62778;PMS7003;48821;48.796;2.396;2022-12-20T01:34:03;8.25;8.00;7.00
62778;PMS7003;48821;48.796;2.396;2022-12-20T01:35:14;7.50;7.50;6.00
62778;PMS7003;48821;48.796;2.396;2022-12-20T01:36:26;8.00;7.75;6.75
62778;PMS7003;48821;48.796;2.396;2022-12-20T01:37:38;7.25;5.75;4.00
62778;PMS7003;48821;48.796;2.396;2022-12-20T01:38:49;7.75;7.75;6.50
62778;PMS7003;48821;48.796;2.396;2022-12-20T01:40:00;8.75;7.75;6.50
62778;PMS7003;48821;48.796;2.396;2022-12-20T01:41:13;10.25;7.75;6.75
62778;PMS7003;48821;48.796;2.396;2022-12-20T01:42:27;10.75;6.50;5.50
62778;PMS7003;48821;48.796;2.396;2022-12-20T01:44:55;9.75;8.00;6.75
62778;PMS7003;48821;48.796;2.396;2022-12-20T01:46:07;9.00;9.00;6.50
62778;PMS7003;48821;48.796;2.396;2022-12-20T01:47:17;9.75;7.50;5.50
62778;PMS7003;48821;48.796;2.396;2022-12-20T01:48:28;8.00;6.00;4.75
62778;PMS7003;48821;48.796;2.396;2022-12-20T01:49:41;8.25;8.25;5.50
62778;PMS7003;48821;48.796;2.396;2022-12-20T01:50:57;7.25;7.25;6.25
62778;PMS7003;48821;48.796;2.396;2022-12-20T01:52:18;9.00;7.25;7.25
62778;PMS7003;48821;48.796;2.396;2022-12-20T01:53:33;7.25;7.25;5.50
62778;PMS7003;48821;48.796;2.396;2022-12-20T01:54:54;10.25;6.75;4.50
62778;PMS7003;48821;48.796;2.396;2022-12-20T01:56:11;7.00;5.50;4.50
62778;PMS7003;48821;48.796;2.396;2022-12-20T01:57:23;6.50;5.50;4.50
62778;PMS7003;48821;48.796;2.396;2022-12-20T01:58:38;9.00;9.00;7.00
62778;PMS7003;48821;48.796;2.396;2022-12-20T01:59:49;7.50;6.75;4.50
62778;PMS7003;48821;48.796;2.396;2022-12-20T02:01:02;11.00;6.50;4.00
62778;PMS7003;48821;48.796;2.396;2022-12-20T02:02:12;7.00;7.00;5.50
62778;PMS7003;48821;48.796;2.396;2022-12-20T02:03:23;6.75;6.75;5.25
62778;PMS7003;48821;48.796;2.396;2022-12-20T02:04:34;8.50;8.50;6.50
62778;PMS7003;48821;48.796;2.396;2022-12-20T02:05:44;9.00;9.00;6.75
62778;PMS7003;48821;48.796;2.396;2022-12-20T02:06:55;7.50;7.50;5.75
62778;PMS7003;48821;48.796;2.396;2022-12-20T02:08:07;6.25;6.25;4.50
62778;PMS7003;48821;48.796;2.396;2022-12-20T02:09:19;7.00;7.00;5.50
62778;PMS7003;48821;48.796;2.396;2022-12-20T02:10:54;7.75;7.00;6.25
62778;PMS7003;48821;48.796;2.396;2022-12-20T02:12:10;6.25;6.25;5.00
62778;PMS7003;48821;48.796;2.396;2022-12-20T02:13:29;8.50;6.50;5.50
62778;PMS7003;48821;48.796;2.396;2022-12-20T02:16:27;6.25;4.75;4.50
62778;PMS7003;48821;48.796;2.396;2022-12-20T02:17:46;6.50;6.50;5.25
62778;PMS7003;48821;48.796;2.396;2022-12-20T02:19:20;6.00;5.25;4.25
62778;PMS7003;48821;48.796;2.396;2022-12-20T02:22:14;8.50;5.50;4.25
62778;PMS7003;48821;48.796;2.396;2022-12-20T02:30:54;6.50;6.25;4.75
62778;PMS7003;48821;48.796;2.396;2022-12-20T02:33:26;6.75;6.75;5.50
62778;PMS7003;48821;48.796;2.396;2022-12-20T02:34:37;8.75;8.25;5.75
62778;PMS7003;48821;48.796;2.396;2022-12-20T02:35:49;6.50;6.50;6.00
62778;PMS7003;48821;48.796;2.396;2022-12-20T02:36:59;11.25;7.50;6.25
62778;PMS7003;48821;48.796;2.396;2022-12-20T02:39:53;7.25;7.25;6.25
62778;PMS7003;48821;48.796;2.396;2022-12-20T02:41:06;8.00;7.50;5.50
62778;PMS7003;48821;48.796;2.396;2022-12-20T02:42:22;9.75;6.75;5.75
62778;PMS7003;48821;48.796;2.396;2022-12-20T02:43:36;6.75;5.25;4.50
62778;PMS7003;48821;48.796;2.396;2022-12-20T02:45:09;8.25;7.00;4.75
62778;PMS7003;48821;48.796;2.396;2022-12-20T02:46:28;5.00;4.75;3.50
62778;PMS7003;48821;48.796;2.396;2022-12-20T02:47:44;6.50;6.50;5.00
62778;PMS7003;48821;48.796;2.396;2022-12-20T02:49:09;7.75;5.50;4.50
62778;PMS7003;48821;48.796;2.396;2022-12-20T02:50:27;7.50;5.75;4.50
62778;PMS7003;48821;48.796;2.396;2022-12-20T02:51:42;9.75;6.50;4.75
62778;PMS7003;48821;48.796;2.396;2022-12-20T02:52:55;7.25;7.25;5.50
62778;PMS7003;48821;48.796;2.396;2022-12-20T02:54:06;6.00;6.00;4.00
62778;PMS7003;48821;48.796;2.396;2022-12-20T02:55:16;6.00;6.00;4.25
62778;PMS7003;48821;48.796;2.396;2022-12-20T02:56:32;5.25;3.75;3.25
62778;PMS7003;48821;48.796;2.396;2022-12-20T02:58:04;8.25;6.50;5.50
62778;PMS7003;48821;48.796;2.396;2022-12-20T02:59:25;7.25;6.25;4.50
62778;PMS7003;48821;48.796;2.396;2022-12-20T03:00:41;7.50;5.50;4.25
62778;PMS7003;48821;48.796;2.396;2022-12-20T03:01:55;5.75;5.50;4.25
62778;PMS7003;48821;48.796;2.396;2022-12-20T03:03:06;4.50;4.50;4.25
62778;PMS7003;48821;48.796;2.396;2022-12-20T03:04:34;6.25;6.25;5.50
62778;PMS7003;48821;48.796;2.396;2022-12-20T03:05:49;5.75;5.25;4.25
62778;PMS7003;48821;48.796;2.396;2022-12-20T03:07:03;7.50;4.75;4.25
62778;PMS7003;48821;48.796;2.396;2022-12-20T03:08:16;6.00;6.00;5.25
62778;PMS7003;48821;48.796;2.396;2022-12-20T03:09:27;6.25;5.00;4.00
62778;PMS7003;48821;48.796;2.396;2022-12-20T03:10:39;6.75;5.00;4.50
62778;PMS7003;48821;48.796;2.396;2022-12-20T03:11:50;4.75;4.50;3.50
62778;PMS7003;48821;48.796;2.396;2022-12-20T03:13:02;5.50;4.75;3.50
62778;PMS7003;48821;48.796;2.396;2022-12-20T03:14:13;6.00;5.25;3.50
62778;PMS7003;48821;48.796;2.396;2022-12-20T03:15:23;5.50;5.50;4.75
62778;PMS7003;48821;48.796;2.396;2022-12-20T03:16:33;8.00;6.00;4.50
62778;PMS7003;48821;48.796;2.396;2022-12-20T03:17:44;4.00;4.00;3.50
62778;PMS7003;48821;48.796;2.396;2022-12-20T03:18:54;4.50;4.25;3.25
62778;PMS7003;48821;48.796;2.396;2022-12-20T03:20:05;6.75;5.50;4.00
62778;PMS7003;48821;48.796;2.396;2022-12-20T03:21:16;4.00;4.00;3.50
62778;PMS7003;48821;48.796;2.396;2022-12-20T03:22:26;4.75;4.25;3.25
62778;PMS7003;48821;48.796;2.396;2022-12-20T03:23:37;6.00;4.50;3.75
62778;PMS7003;48821;48.796;2.396;2022-12-20T03:24:48;3.00;3.00;3.00
62778;PMS7003;48821;48.796;2.396;2022-12-20T03:25:59;3.50;3.50;3.50
62778;PMS7003;48821;48.796;2.396;2022-12-20T03:27:09;4.50;4.25;3.50
62778;PMS7003;48821;48.796;2.396;2022-12-20T03:28:20;4.25;3.25;2.50
62778;PMS7003;48821;48.796;2.396;2022-12-20T03:29:30;5.00;5.00;4.00
62778;PMS7003;48821;48.796;2.396;2022-12-20T03:30:40;5.50;5.50;4.00
62778;PMS7003;48821;48.796;2.396;2022-12-20T03:31:51;4.50;3.25;2.75
62778;PMS7003;48821;48.796;2.396;2022-12-20T03:33:01;3.50;3.50;3.25
62778;PMS7003;48821;48.796;2.396;2022-12-20T03:34:12;4.75;4.75;3.50
62778;PMS7003;48821;48.796;2.396;2022-12-20T03:35:22;5.50;4.50;4.25
62778;PMS7003;48821;48.796;2.396;2022-12-20T03:36:33;7.25;3.50;2.50
62778;PMS7003;48821;48.796;2.396;2022-12-20T03:37:43;4.00;4.00;3.00
62778;PMS7003;48821;48.796;2.396;2022-12-20T03:38:53;4.75;4.25;3.50
62778;PMS7003;48821;48.796;2.396;2022-12-20T03:40:04;6.25;5.50;4.50
62778;PMS7003;48821;48.796;2.396;2022-12-20T03:41:15;4.25;4.25;3.25
62778;PMS7003;48821;48.796;2.396;2022-12-20T03:42:26;5.50;4.00;3.50
62778;PMS7003;48821;48.796;2.396;2022-12-20T03:43:37;5.50;4.00;4.00
62778;PMS7003;48821;48.796;2.396;2022-12-20T03:44:47;6.25;4.50;3.50
62778;PMS7003;48821;48.796;2.396;2022-12-20T03:45:57;3.75;3.75;3.50
62778;PMS7003;48821;48.796;2.396;2022-12-20T03:47:08;5.75;4.75;4.00
62778;PMS7003;48821;48.796;2.396;2022-12-20T03:48:18;5.00;3.50;3.50
62778;PMS7003;48821;48.796;2.396;2022-12-20T03:49:29;9.50;6.00;4.25
62778;PMS7003;48821;48.796;2.396;2022-12-20T03:50:39;4.00;4.00;3.25
62778;PMS7003;48821;48.796;2.396;2022-12-20T03:51:50;8.75;7.75;6.25
62778;PMS7003;48821;48.796;2.396;2022-12-20T03:53:00;10.00;8.00;6.50
62778;PMS7003;48821;48.796;2.396;2022-12-20T03:54:11;8.50;7.00;5.50
62778;PMS7003;48821;48.796;2.396;2022-12-20T03:55:21;6.25;4.50;4.00
62778;PMS7003;48821;48.796;2.396;2022-12-20T03:56:32;6.00;5.50;4.75
62778;PMS7003;48821;48.796;2.396;2022-12-20T03:57:43;4.50;4.50;3.50
62778;PMS7003;48821;48.796;2.396;2022-12-20T03:58:53;7.25;5.50;4.75
62778;PMS7003;48821;48.796;2.396;2022-12-20T04:00:04;7.25;6.50;4.25
62778;PMS7003;48821;48.796;2.396;2022-12-20T04:01:22;5.50;5.50;4.50
62778;PMS7003;48821;48.796;2.396;2022-12-20T04:02:34;6.75;6.50;5.25
62778;PMS7003;48821;48.796;2.396;2022-12-20T04:03:45;6.00;5.25;3.75
62778;PMS7003;48821;48.796;2.396;2022-12-20T04:04:55;6.50;5.50;4.50
62778;PMS7003;48821;48.796;2.396;2022-12-20T04:06:05;5.50;5.50;4.50
62778;PMS7003;48821;48.796;2.396;2022-12-20T04:07:16;5.25;4.50;4.00
62778;PMS7003;48821;48.796;2.396;2022-12-20T04:08:27;4.00;4.00;3.00
62778;PMS7003;48821;48.796;2.396;2022-12-20T04:09:37;8.50;6.25;4.75
62778;PMS7003;48821;48.796;2.396;2022-12-20T04:10:47;5.25;5.25;4.25
62778;PMS7003;48821;48.796;2.396;2022-12-20T04:12:16;7.25;5.00;4.50
62778;PMS7003;48821;48.796;2.396;2022-12-20T04:13:27;7.00;4.25;3.50
62778;PMS7003;48821;48.796;2.396;2022-12-20T04:14:37;5.25;5.25;4.25
62778;PMS7003;48821;48.796;2.396;2022-12-20T04:15:48;4.25;4.25;3.25
62778;PMS7003;48821;48.796;2.396;2022-12-20T04:16:58;5.25;4.25;3.50
62778;PMS7003;48821;48.796;2.396;2022-12-20T04:18:08;7.50;6.50;4.50
62778;PMS7003;48821;48.796;2.396;2022-12-20T04:19:19;5.50;5.50;4.50
62778;PMS7003;48821;48.796;2.396;2022-12-20T04:20:29;6.25;5.00;3.50
62778;PMS7003;48821;48.796;2.396;2022-12-20T04:21:39;5.00;4.50;3.50
62778;PMS7003;48821;48.796;2.396;2022-12-20T04:22:50;4.50;4.25;4.25
62778;PMS7003;48821;48.796;2.396;2022-12-20T04:24:01;6.50;4.50;3.50
62778;PMS7003;48821;48.796;2.396;2022-12-20T04:25:14;6.25;6.25;4.25
62778;PMS7003;48821;48.796;2.396;2022-12-20T04:26:26;6.00;4.75;4.00
62778;PMS7003;48821;48.796;2.396;2022-12-20T04:27:36;3.00;2.50;2.50
62778;PMS7003;48821;48.796;2.396;2022-12-20T04:28:47;6.50;6.50;4.50
62778;PMS7003;48821;48.796;2.396;2022-12-20T04:29:57;4.25;4.25;3.50
62778;PMS7003;48821;48.796;2.396;2022-12-20T04:31:08;5.25;3.75;2.75
62778;PMS7003;48821;48.796;2.396;2022-12-20T04:32:19;5.00;4.25;3.50
62778;PMS7003;48821;48.796;2.396;2022-12-20T04:33:29;5.00;3.25;2.25
62778;PMS7003;48821;48.796;2.396;2022-12-20T04:34:40;3.50;3.50;2.75
62778;PMS7003;48821;48.796;2.396;2022-12-20T04:35:50;3.50;3.50;3.00
62778;PMS7003;48821;48.796;2.396;2022-12-20T04:37:01;3.75;3.25;3.25
62778;PMS7003;48821;48.796;2.396;2022-12-20T04:38:11;4.50;4.00;3.50
62778;PMS7003;48821;48.796;2.396;2022-12-20T04:39:21;4.25;3.50;3.00
62778;PMS7003;48821;48.796;2.396;2022-12-20T04:40:32;4.00;4.00;3.00
62778;PMS7003;48821;48.796;2.396;2022-12-20T04:41:42;5.50;2.50;2.00
62778;PMS7003;48821;48.796;2.396;2022-12-20T04:42:52;3.50;3.50;3.50
62778;PMS7003;48821;48.796;2.396;2022-12-20T04:44:03;4.25;4.25;3.25
62778;PMS7003;48821;48.796;2.396;2022-12-20T04:45:13;5.00;3.75;2.50
62778;PMS7003;48821;48.796;2.396;2022-12-20T04:46:24;5.25;4.50;3.50
62778;PMS7003;48821;48.796;2.396;2022-12-20T04:47:35;3.00;2.75;2.25
62778;PMS7003;48821;48.796;2.396;2022-12-20T04:48:46;3.50;3.50;3.25
62778;PMS7003;48821;48.796;2.396;2022-12-20T04:49:56;3.75;3.25;2.50
62778;PMS7003;48821;48.796;2.396;2022-12-20T04:51:06;5.25;2.75;2.50
62778;PMS7003;48821;48.796;2.396;2022-12-20T04:52:17;4.75;3.25;3.00
62778;PMS7003;48821;48.796;2.396;2022-12-20T04:53:46;5.50;4.00;3.50
62778;PMS7003;48821;48.796;2.396;2022-12-20T04:54:56;3.25;3.25;2.75
62778;PMS7003;48821;48.796;2.396;2022-12-20T04:56:07;3.00;3.00;2.50
62778;PMS7003;48821;48.796;2.396;2022-12-20T04:57:18;5.25;4.25;3.25
62778;PMS7003;48821;48.796;2.396;2022-12-20T04:58:29;3.50;3.50;3.25
62778;PMS7003;48821;48.796;2.396;2022-12-20T04:59:39;0.50;0.50;0.50
62778;PMS7003;48821;48.796;2.396;2022-12-20T05:00:50;4.75;4.50;3.50
62778;PMS7003;48821;48.796;2.396;2022-12-20T05:02:01;5.50;3.50;2.50
62778;PMS7003;48821;48.796;2.396;2022-12-20T05:03:11;2.50;2.50;1.75
62778;PMS7003;48821;48.796;2.396;2022-12-20T05:04:22;3.50;3.50;2.50
62778;PMS7003;48821;48.796;2.396;2022-12-20T05:05:32;3.50;3.50;3.50
62778;PMS7003;48821;48.796;2.396;2022-12-20T05:06:42;3.75;3.75;3.25
62778;PMS7003;48821;48.796;2.396;2022-12-20T05:07:53;3.00;3.00;2.50
62778;PMS7003;48821;48.796;2.396;2022-12-20T05:09:04;4.50;3.25;2.50
62778;PMS7003;48821;48.796;2.396;2022-12-20T05:10:14;3.50;3.00;3.00
62778;PMS7003;48821;48.796;2.396;2022-12-20T05:11:24;6.50;3.00;2.25
62778;PMS7003;48821;48.796;2.396;2022-12-20T05:12:35;2.50;1.50;0.75
62778;PMS7003;48821;48.796;2.396;2022-12-20T05:13:45;6.25;3.50;2.50
62778;PMS7003;48821;48.796;2.396;2022-12-20T05:14:56;3.50;3.50;2.25
62778;PMS7003;48821;48.796;2.396;2022-12-20T05:16:06;3.25;2.75;2.50
62778;PMS7003;48821;48.796;2.396;2022-12-20T05:17:17;4.00;3.00;2.75
62778;PMS7003;48821;48.796;2.396;2022-12-20T05:18:27;2.50;2.50;2.50
62778;PMS7003;48821;48.796;2.396;2022-12-20T05:19:38;3.50;3.50;3.00
62778;PMS7003;48821;48.796;2.396;2022-12-20T05:20:49;4.25;3.50;2.75
62778;PMS7003;48821;48.796;2.396;2022-12-20T05:22:19;3.00;2.50;2.25
62778;PMS7003;48821;48.796;2.396;2022-12-20T05:23:48;4.00;3.50;3.25
62778;PMS7003;48821;48.796;2.396;2022-12-20T05:25:17;2.50;2.50;2.00
62778;PMS7003;48821;48.796;2.396;2022-12-20T05:26:46;5.25;3.50;2.25
62778;PMS7003;48821;48.796;2.396;2022-12-20T05:27:56;4.25;3.25;2.50
62778;PMS7003;48821;48.796;2.396;2022-12-20T05:29:07;3.25;3.25;2.50
62778;PMS7003;48821;48.796;2.396;2022-12-20T05:30:18;4.50;2.25;2.25
62778;PMS7003;48821;48.796;2.396;2022-12-20T05:31:29;4.50;3.25;3.00
62778;PMS7003;48821;48.796;2.396;2022-12-20T05:32:39;1.50;1.50;1.50
62778;PMS7003;48821;48.796;2.396;2022-12-20T05:33:49;6.25;3.75;3.00
62778;PMS7003;48821;48.796;2.396;2022-12-20T05:35:00;2.50;2.50;2.00
62778;PMS7003;48821;48.796;2.396;2022-12-20T05:36:10;2.25;2.25;1.50
62778;PMS7003;48821;48.796;2.396;2022-12-20T05:37:21;4.00;4.00;3.25
62778;PMS7003;48821;48.796;2.396;2022-12-20T05:38:31;2.50;2.50;2.50
62778;PMS7003;48821;48.796;2.396;2022-12-20T05:39:42;0.25;0.25;0.00
62778;PMS7003;48821;48.796;2.396;2022-12-20T05:40:52;5.50;2.75;2.50
62778;PMS7003;48821;48.796;2.396;2022-12-20T05:42:02;4.25;4.25;2.75
62778;PMS7003;48821;48.796;2.396;2022-12-20T05:43:13;3.00;2.75;2.00
62778;PMS7003;48821;48.796;2.396;2022-12-20T05:44:24;3.25;3.25;2.75
62778;PMS7003;48821;48.796;2.396;2022-12-20T05:45:34;4.75;3.50;3.00
62778;PMS7003;48821;48.796;2.396;2022-12-20T05:46:45;2.75;2.75;2.25
62778;PMS7003;48821;48.796;2.396;2022-12-20T05:47:55;3.25;3.25;2.50
62778;PMS7003;48821;48.796;2.396;2022-12-20T05:49:05;5.75;4.50;2.75
62778;PMS7003;48821;48.796;2.396;2022-12-20T05:50:16;4.00;3.75;2.75
62778;PMS7003;48821;48.796;2.396;2022-12-20T05:51:26;3.25;2.50;2.25
62778;PMS7003;48821;48.796;2.396;2022-12-20T05:52:37;2.75;2.75;2.75
62778;PMS7003;48821;48.796;2.396;2022-12-20T05:53:47;1.75;1.75;1.75
62778;PMS7003;48821;48.796;2.396;2022-12-20T05:54:57;3.00;3.00;2.25
62778;PMS7003;48821;48.796;2.396;2022-12-20T05:56:08;3.50;2.75;1.75
62778;PMS7003;48821;48.796;2.396;2022-12-20T05:57:18;3.75;3.50;2.75
62778;PMS7003;48821;48.796;2.396;2022-12-20T05:58:28;3.25;3.25;3.00
62778;PMS7003;48821;48.796;2.396;2022-12-20T05:59:39;2.75;2.75;2.75
62778;PMS7003;48821;48.796;2.396;2022-12-20T06:00:49;2.75;2.75;2.25
62778;PMS7003;48821;48.796;2.396;2022-12-20T06:02:00;2.75;2.75;2.25
62778;PMS7003;48821;48.796;2.396;2022-12-20T06:03:10;3.50;3.50;2.75
62778;PMS7003;48821;48.796;2.396;2022-12-20T06:04:22;6.25;2.75;2.00
62778;PMS7003;48821;48.796;2.396;2022-12-20T06:05:32;3.75;2.75;2.00
62778;PMS7003;48821;48.796;2.396;2022-12-20T06:06:43;3.25;2.50;2.00
62778;PMS7003;48821;48.796;2.396;2022-12-20T06:07:53;3.50;2.50;2.25
62778;PMS7003;48821;48.796;2.396;2022-12-20T06:09:04;5.00;2.75;2.50
62778;PMS7003;48821;48.796;2.396;2022-12-20T06:10:14;2.50;2.50;2.00
62778;PMS7003;48821;48.796;2.396;2022-12-20T06:11:24;3.00;3.00;2.25
62778;PMS7003;48821;48.796;2.396;2022-12-20T06:12:35;3.50;3.50;3.00
62778;PMS7003;48821;48.796;2.396;2022-12-20T06:13:45;4.50;2.75;2.00
62778;PMS7003;48821;48.796;2.396;2022-12-20T06:14:55;4.50;3.00;2.75
62778;PMS7003;48821;48.796;2.396;2022-12-20T06:16:06;2.50;2.50;1.75
62778;PMS7003;48821;48.796;2.396;2022-12-20T06:17:16;5.25;3.50;2.75
62778;PMS7003;48821;48.796;2.396;2022-12-20T06:18:27;2.75;2.75;2.50
62778;PMS7003;48821;48.796;2.396;2022-12-20T06:19:38;4.00;4.00;3.75
62778;PMS7003;48821;48.796;2.396;2022-12-20T06:20:51;7.75;5.50;4.00
62778;PMS7003;48821;48.796;2.396;2022-12-20T06:22:02;6.25;3.75;3.00
62778;PMS7003;48821;48.796;2.396;2022-12-20T06:23:13;6.50;3.25;2.75
62778;PMS7003;48821;48.796;2.396;2022-12-20T06:24:23;4.00;4.00;4.00
62778;PMS7003;48821;48.796;2.396;2022-12-20T06:25:36;4.50;3.75;2.75
62778;PMS7003;48821;48.796;2.396;2022-12-20T06:26:48;5.50;3.25;3.00
62778;PMS7003;48821;48.796;2.396;2022-12-20T06:27:59;4.00;4.00;4.00
62778;PMS7003;48821;48.796;2.396;2022-12-20T06:29:10;3.75;3.75;2.75
62778;PMS7003;48821;48.796;2.396;2022-12-20T06:30:23;8.25;4.00;3.75
62778;PMS7003;48821;48.796;2.396;2022-12-20T06:31:33;3.00;3.00;2.00
62778;PMS7003;48821;48.796;2.396;2022-12-20T06:32:44;3.00;3.00;2.00
62778;PMS7003;48821;48.796;2.396;2022-12-20T06:33:54;4.00;3.75;2.75
62778;PMS7003;48821;48.796;2.396;2022-12-20T06:35:04;1.75;1.25;0.00
62778;PMS7003;48821;48.796;2.396;2022-12-20T06:36:15;3.25;3.25;2.50
62778;PMS7003;48821;48.796;2.396;2022-12-20T06:37:26;2.75;2.75;2.50
62778;PMS7003;48821;48.796;2.396;2022-12-20T06:38:36;3.75;3.25;3.00
62778;PMS7003;48821;48.796;2.396;2022-12-20T06:39:46;3.50;1.00;0.75
62778;PMS7003;48821;48.796;2.396;2022-12-20T06:40:57;3.50;3.50;2.50
62778;PMS7003;48821;48.796;2.396;2022-12-20T06:42:07;2.25;2.00;2.00
62778;PMS7003;48821;48.796;2.396;2022-12-20T06:43:18;4.00;3.00;2.75
62778;PMS7003;48821;48.796;2.396;2022-12-20T06:44:28;3.00;3.00;2.00
62778;PMS7003;48821;48.796;2.396;2022-12-20T06:45:38;3.00;1.75;1.75
62778;PMS7003;48821;48.796;2.396;2022-12-20T06:46:49;5.50;5.50;4.00
62778;PMS7003;48821;48.796;2.396;2022-12-20T06:47:59;4.25;2.75;1.75
62778;PMS7003;48821;48.796;2.396;2022-12-20T06:49:09;7.25;5.25;3.00
62778;PMS7003;48821;48.796;2.396;2022-12-20T06:50:20;2.75;2.75;2.50
62778;PMS7003;48821;48.796;2.396;2022-12-20T06:51:30;3.00;3.00;2.00
62778;PMS7003;48821;48.796;2.396;2022-12-20T06:52:40;3.25;3.25;2.25
62778;PMS7003;48821;48.796;2.396;2022-12-20T06:53:51;3.00;3.00;2.75
62778;PMS7003;48821;48.796;2.396;2022-12-20T06:55:01;3.75;3.50;2.00
62778;PMS7003;48821;48.796;2.396;2022-12-20T06:56:11;4.25;3.50;2.75
62778;PMS7003;48821;48.796;2.396;2022-12-20T06:57:22;6.50;4.00;3.75
62778;PMS7003;48821;48.796;2.396;2022-12-20T06:58:32;8.00;5.25;3.75
62778;PMS7003;48821;48.796;2.396;2022-12-20T06:59:43;6.25;4.50;3.50
62778;PMS7003;48821;48.796;2.396;2022-12-20T07:00:53;3.75;3.75;3.00
62778;PMS7003;48821;48.796;2.396;2022-12-20T07:02:03;5.25;5.25;3.75
62778;PMS7003;48821;48.796;2.396;2022-12-20T07:03:14;6.50;3.75;3.75
62778;PMS7003;48821;48.796;2.396;2022-12-20T07:04:24;4.50;4.50;3.75
62778;PMS7003;48821;48.796;2.396;2022-12-20T07:05:35;7.00;2.75;2.25
62778;PMS7003;48821;48.796;2.396;2022-12-20T07:06:45;8.50;6.75;4.75
62778;PMS7003;48821;48.796;2.396;2022-12-20T07:07:55;6.25;4.50;4.00
62778;PMS7003;48821;48.796;2.396;2022-12-20T07:09:06;6.75;3.00;3.00
62778;PMS7003;48821;48.796;2.396;2022-12-20T07:10:18;1.75;1.75;1.75
62778;PMS7003;48821;48.796;2.396;2022-12-20T07:11:28;6.00;4.50;2.75
62778;PMS7003;48821;48.796;2.396;2022-12-20T07:12:39;3.00;3.00;2.50
62778;PMS7003;48821;48.796;2.396;2022-12-20T07:13:53;2.00;2.00;0.75
62778;PMS7003;48821;48.796;2.396;2022-12-20T07:15:05;6.25;3.75;3.00
62778;PMS7003;48821;48.796;2.396;2022-12-20T07:16:17;4.00;3.00;3.00